createdAt,value
2022-09-21T00:01:16.531Z,13.80
2022-09-21T00:03:43.845Z,11.50
2022-09-21T00:06:12.084Z,11.27
2022-09-21T00:08:38.794Z,11.23
2022-09-21T00:11:06.088Z,11.73
2022-09-21T00:13:33.492Z,10.83
2022-09-21T00:16:00.495Z,12.17
2022-09-21T00:18:27.092Z,14.67
2022-09-21T00:20:53.750Z,10.47
2022-09-21T00:23:20.575Z,12.33
2022-09-21T00:25:47.188Z,13.30
2022-09-21T00:28:13.733Z,12.10
2022-09-21T00:30:40.272Z,11.90
2022-09-21T00:33:07.025Z,13.30
2022-09-21T00:35:33.731Z,13.83
2022-09-21T00:38:00.904Z,12.70
2022-09-21T00:40:27.463Z,11.57
2022-09-21T00:42:54.023Z,15.80
2022-09-21T00:45:23.272Z,11.23
2022-09-21T00:47:51.736Z,13.53
2022-09-21T00:50:24.133Z,10.83
2022-09-21T00:52:55.545Z,13.63
2022-09-21T00:55:25.459Z,12.27
2022-09-21T00:57:54.629Z,10.67
2022-09-21T01:00:21.346Z,14.07
2022-09-21T01:02:48.079Z,12.43
2022-09-21T01:05:14.610Z,14.33
2022-09-21T01:07:43.720Z,12.87
2022-09-21T01:10:19.879Z,11.77
2022-09-21T01:13:05.531Z,13.37
2022-09-21T01:15:54.665Z,14.53
2022-09-21T01:18:21.286Z,11.23
2022-09-21T01:21:06.610Z,12.37
2022-09-21T01:23:58.084Z,15.57
2022-09-21T01:26:43.406Z,10.83
2022-09-21T01:29:16.519Z,10.97
2022-09-21T01:32:00.963Z,12.47
2022-09-21T01:34:29.671Z,12.20
2022-09-21T01:36:58.027Z,12.97
2022-09-21T01:39:25.449Z,13.10
2022-09-21T01:41:52.698Z,10.73
2022-09-21T01:44:20.998Z,15.13
2022-09-21T01:46:48.402Z,12.20
2022-09-21T01:49:17.115Z,12.00
2022-09-21T01:51:51.530Z,15.27
2022-09-21T01:54:25.896Z,11.03
2022-09-21T01:57:07.743Z,10.67
2022-09-21T01:59:37.248Z,11.17
2022-09-21T02:02:09.202Z,16.37
2022-09-21T02:04:36.004Z,11.53
2022-09-21T02:07:02.612Z,11.47
2022-09-21T02:09:29.415Z,15.67
2022-09-21T02:11:58.244Z,13.03
2022-09-21T02:14:25.595Z,15.33
2022-09-21T02:16:55.420Z,13.40
2022-09-21T02:19:36.045Z,11.07
2022-09-21T02:22:08.746Z,12.73
2022-09-21T02:24:41.439Z,12.53
2022-09-21T02:27:23.761Z,12.87
2022-09-21T02:29:53.777Z,13.77
2022-09-21T02:32:38.182Z,11.43
2022-09-21T02:35:17.281Z,16.60
2022-09-21T02:37:47.303Z,11.43
2022-09-21T02:40:16.951Z,9.43
2022-09-21T02:42:45.260Z,12.63
2022-09-21T02:45:11.812Z,13.00
2022-09-21T02:47:56.817Z,13.33
2022-09-21T02:50:25.881Z,11.33
2022-09-21T02:52:52.789Z,13.10
2022-09-21T02:55:19.372Z,11.10
2022-09-21T02:57:47.567Z,12.67
2022-09-21T03:00:15.583Z,14.90
2022-09-21T03:02:43.471Z,17.20
2022-09-21T03:05:11.185Z,13.97
2022-09-21T03:07:37.716Z,14.60
2022-09-21T03:10:05.010Z,14.57
2022-09-21T03:12:32.756Z,14.70
2022-09-21T03:15:00.222Z,14.27
2022-09-21T03:17:27.319Z,18.30
2022-09-21T03:19:57.096Z,16.70
2022-09-21T03:22:24.246Z,18.03
2022-09-21T03:24:51.162Z,12.67
2022-09-21T03:27:18.923Z,17.00
2022-09-21T03:29:45.979Z,13.37
2022-09-21T03:32:13.858Z,11.73
2022-09-21T03:34:40.771Z,14.70
2022-09-21T03:37:08.083Z,17.87
2022-09-21T03:39:35.143Z,13.77
2022-09-21T03:42:02.591Z,11.67
2022-09-21T03:44:29.639Z,10.93
2022-09-21T03:46:56.869Z,14.07
2022-09-21T03:49:23.544Z,13.43
2022-09-21T03:51:50.104Z,16.13
2022-09-21T03:54:16.664Z,14.07
2022-09-21T03:56:43.433Z,12.90
2022-09-21T03:59:13.898Z,14.10
2022-09-21T04:01:41.483Z,12.77
2022-09-21T04:04:08.368Z,16.83
2022-09-21T04:06:35.079Z,15.43
2022-09-21T04:09:03.659Z,16.13
2022-09-21T04:11:33.399Z,14.80
2022-09-21T04:14:00.205Z,14.63
2022-09-21T04:16:27.501Z,17.50
2022-09-21T04:18:54.426Z,14.30
2022-09-21T04:21:22.323Z,13.37
2022-09-21T04:23:49.763Z,13.30
2022-09-21T04:26:21.285Z,16.20
2022-09-21T04:28:47.853Z,14.60
2022-09-21T04:31:14.534Z,18.73
2022-09-21T04:33:41.701Z,17.87
2022-09-21T04:36:08.270Z,14.47
2022-09-21T04:38:34.810Z,17.00
2022-09-21T04:41:01.875Z,15.67
2022-09-21T04:43:28.465Z,15.40
2022-09-21T04:45:55.088Z,15.73
2022-09-21T04:48:21.767Z,14.43
2022-09-21T04:50:48.912Z,15.40
2022-09-21T04:53:15.475Z,15.57
2022-09-21T04:55:42.035Z,14.07
2022-09-21T04:58:08.784Z,13.47
2022-09-21T05:00:35.343Z,14.03
2022-09-21T05:03:01.860Z,13.07
2022-09-21T05:05:28.501Z,11.77
2022-09-21T05:07:55.158Z,15.00
2022-09-21T05:10:21.709Z,16.17
2022-09-21T05:12:48.526Z,12.87
2022-09-21T05:15:15.152Z,18.17
2022-09-21T05:17:41.805Z,17.83
2022-09-21T05:20:08.612Z,12.27
2022-09-21T05:22:35.171Z,14.73
2022-09-21T05:25:01.918Z,16.23
2022-09-21T05:27:28.524Z,14.60
2022-09-21T05:29:55.214Z,16.43
2022-09-21T05:32:28.164Z,14.57
2022-09-21T05:34:54.740Z,16.77
2022-09-21T05:37:31.831Z,14.97
2022-09-21T05:39:58.498Z,16.33
2022-09-21T05:42:25.168Z,14.60
2022-09-21T05:44:51.863Z,15.63
2022-09-21T05:47:33.523Z,14.43
2022-09-21T05:50:06.251Z,16.50
2022-09-21T05:52:32.828Z,16.87
2022-09-21T05:55:14.622Z,15.40
2022-09-21T05:57:41.143Z,13.17
2022-09-21T06:00:13.290Z,21.33
2022-09-21T06:03:08.710Z,15.07
2022-09-21T06:05:35.822Z,17.20
2022-09-21T06:08:03.493Z,14.03
2022-09-21T06:10:32.622Z,13.27
2022-09-21T06:13:00.846Z,16.93
2022-09-21T06:15:27.472Z,13.03
2022-09-21T06:17:54.087Z,14.17
2022-09-21T06:20:20.691Z,12.03
2022-09-21T06:22:47.362Z,14.93
2022-09-21T06:25:13.960Z,17.10
2022-09-21T06:27:40.646Z,17.73
2022-09-21T06:30:07.445Z,18.33
2022-09-21T06:32:34.018Z,20.90
2022-09-21T06:35:00.648Z,15.33
2022-09-21T06:37:27.237Z,13.03
2022-09-21T06:39:53.807Z,13.97
2022-09-21T06:42:20.475Z,17.13
2022-09-21T06:44:47.039Z,14.27
2022-09-21T06:47:15.492Z,12.83
2022-09-21T06:49:43.939Z,14.67
2022-09-21T06:52:10.535Z,15.13
2022-09-21T06:54:37.128Z,14.87
2022-09-21T06:57:03.971Z,16.67
2022-09-21T06:59:31.096Z,17.53
2022-09-21T07:01:58.711Z,14.37
2022-09-21T07:04:29.531Z,19.70
2022-09-21T07:07:03.978Z,16.23
2022-09-21T07:12:18.440Z,14.50
2022-09-21T07:14:45.680Z,12.60
2022-09-21T07:17:15.456Z,12.23
2022-09-21T07:19:42.744Z,11.33
2022-09-21T07:22:09.509Z,11.60
2022-09-21T07:24:37.646Z,10.20
2022-09-21T07:27:04.456Z,11.10
2022-09-21T07:29:31.162Z,11.67
2022-09-21T07:31:58.282Z,11.50
2022-09-21T07:34:25.032Z,12.10
2022-09-21T07:36:51.736Z,11.13
2022-09-21T07:39:18.464Z,11.97
2022-09-21T07:41:45.407Z,13.17
2022-09-21T07:44:12.543Z,11.77
2022-09-21T07:46:45.645Z,8.50
2022-09-21T07:49:15.764Z,14.70
2022-09-21T07:51:44.916Z,12.63
2022-09-21T07:54:12.478Z,14.53
2022-09-21T07:56:39.854Z,14.30
2022-09-21T07:59:07.092Z,15.10
2022-09-21T08:01:38.444Z,10.60
2022-09-21T08:04:09.469Z,14.90
2022-09-21T08:06:39.986Z,13.00
2022-09-21T08:09:07.485Z,13.63
2022-09-21T08:11:34.561Z,11.50
2022-09-21T08:14:02.075Z,11.53
2022-09-21T08:16:29.440Z,10.83
2022-09-21T08:18:56.154Z,10.73
2022-09-21T08:21:22.781Z,11.77
2022-09-21T08:23:49.643Z,12.93
2022-09-21T08:26:20.812Z,11.13
2022-09-21T08:28:51.561Z,12.80
2022-09-21T08:31:19.765Z,14.47
2022-09-21T08:33:46.906Z,11.83
2022-09-21T08:36:13.768Z,12.80
2022-09-21T08:38:40.529Z,12.37
2022-09-21T08:41:15.236Z,13.20
2022-09-21T08:43:51.856Z,14.53
2022-09-21T08:46:27.245Z,15.47
2022-09-21T08:49:00.036Z,10.60
2022-09-21T08:51:29.566Z,12.60
2022-09-21T08:53:58.090Z,11.10
2022-09-21T08:56:37.050Z,10.83
2022-09-21T08:59:13.248Z,10.63
2022-09-21T09:01:49.131Z,10.50
2022-09-21T09:04:27.932Z,9.80
2022-09-21T09:06:54.495Z,10.23
2022-09-21T09:09:48.620Z,10.00
2022-09-21T09:12:21.351Z,11.83
2022-09-21T09:14:59.077Z,14.00
2022-09-21T09:17:44.506Z,11.70
2022-09-21T09:20:17.105Z,10.57
2022-09-21T09:22:47.326Z,14.17
2022-09-21T09:25:19.072Z,10.50
2022-09-21T09:27:46.748Z,11.57
2022-09-21T09:30:25.524Z,12.57
2022-09-21T09:32:55.128Z,10.47
2022-09-21T09:35:45.035Z,12.97
2022-09-21T09:38:17.856Z,12.57
2022-09-21T09:40:44.606Z,10.77
2022-09-21T09:43:34.557Z,9.93
2022-09-21T09:46:10.414Z,9.40
2022-09-21T09:48:58.783Z,10.93
2022-09-21T09:51:26.879Z,11.23
2022-09-21T09:53:56.427Z,12.40
2022-09-21T09:56:23.564Z,7.47
2022-09-21T09:58:54.371Z,8.87
2022-09-21T10:01:56.237Z,10.30
2022-09-21T10:04:22.849Z,7.70
2022-09-21T10:06:49.490Z,7.17
2022-09-21T10:09:28.216Z,9.00
2022-09-21T10:12:01.849Z,6.37
2022-09-21T10:14:31.262Z,9.50
2022-09-21T10:17:01.495Z,6.43
2022-09-21T10:19:29.026Z,10.80
2022-09-21T10:22:00.060Z,5.87
2022-09-21T10:24:28.361Z,8.17
2022-09-21T10:27:10.686Z,10.37
2022-09-21T10:29:40.939Z,5.60
2022-09-21T10:32:14.769Z,5.67
2022-09-21T10:34:59.679Z,6.80
2022-09-21T10:37:28.170Z,5.50
2022-09-21T10:39:54.956Z,7.13
2022-09-21T10:42:21.795Z,5.43
2022-09-21T10:44:52.781Z,10.60
2022-09-21T10:47:19.474Z,4.53
2022-09-21T10:49:53.773Z,3.67
2022-09-21T10:52:22.255Z,7.97
2022-09-21T10:54:52.197Z,7.40
2022-09-21T10:57:20.524Z,6.40
2022-09-21T10:59:47.108Z,4.43
2022-09-21T11:02:31.911Z,4.70
2022-09-21T11:05:11.472Z,4.33
2022-09-21T11:07:57.003Z,5.23
2022-09-21T11:10:34.156Z,5.57
2022-09-21T11:13:19.919Z,6.00
2022-09-21T11:15:49.243Z,11.37
2022-09-21T11:18:22.143Z,5.73
2022-09-21T11:20:54.943Z,4.67
2022-09-21T11:23:27.953Z,4.30
2022-09-21T11:26:15.653Z,3.57
2022-09-21T11:28:46.392Z,5.73
2022-09-21T11:31:35.789Z,4.97
2022-09-21T11:34:20.633Z,2.73
2022-09-21T11:36:58.275Z,4.97
2022-09-21T11:40:00.120Z,5.57
2022-09-21T11:42:27.193Z,3.33
2022-09-21T11:44:55.291Z,9.23
2022-09-21T11:47:25.235Z,6.60
2022-09-21T11:53:16.259Z,10.63
2022-09-21T11:56:03.519Z,5.10
2022-09-21T11:58:37.370Z,8.97
2022-09-21T12:01:12.184Z,6.67
2022-09-21T12:03:58.020Z,5.17
2022-09-21T12:06:30.736Z,6.80
2022-09-21T12:09:07.696Z,5.07
2022-09-21T12:11:48.818Z,2.57
2022-09-21T12:14:22.848Z,2.70
2022-09-21T12:17:08.672Z,4.00
2022-09-21T12:19:38.279Z,2.57
2022-09-21T12:22:10.087Z,3.13
2022-09-21T12:24:42.617Z,5.20
2022-09-21T12:27:18.581Z,5.20
2022-09-21T12:29:47.907Z,2.03
2022-09-21T12:32:33.279Z,5.33
2022-09-21T12:35:02.244Z,7.50
2022-09-21T12:37:40.484Z,4.03
2022-09-21T12:40:13.544Z,6.07
2022-09-21T12:42:48.259Z,6.23
2022-09-21T12:45:17.462Z,3.30
2022-09-21T12:47:53.421Z,4.00
2022-09-21T12:50:22.987Z,2.50
2022-09-21T12:52:50.220Z,2.00
2022-09-21T12:55:25.882Z,3.27
2022-09-21T12:58:15.540Z,6.07
2022-09-21T13:00:47.527Z,4.10
2022-09-21T13:03:21.757Z,2.27
2022-09-21T13:05:48.525Z,1.77
2022-09-21T13:08:16.493Z,1.40
2022-09-21T13:10:54.701Z,2.90
2022-09-21T13:13:27.957Z,3.20
2022-09-21T13:15:55.201Z,1.87
2022-09-21T13:18:24.064Z,1.77
2022-09-21T13:20:52.274Z,3.93
2022-09-21T13:23:24.685Z,5.40
2022-09-21T13:26:07.546Z,2.87
2022-09-21T13:28:45.428Z,1.57
2022-09-21T13:31:40.436Z,4.33
2022-09-21T13:34:37.199Z,1.67
2022-09-21T13:37:18.852Z,2.50
2022-09-21T13:39:48.554Z,2.37
2022-09-21T13:42:30.686Z,3.57
2022-09-21T13:45:13.793Z,3.03
2022-09-21T13:47:41.759Z,4.97
2022-09-21T13:50:14.075Z,2.30
2022-09-21T13:52:45.245Z,2.03
2022-09-21T13:55:23.481Z,3.57
2022-09-21T13:57:52.230Z,3.63
2022-09-21T14:00:32.328Z,2.97
2022-09-21T14:03:01.582Z,4.67
2022-09-21T14:05:45.306Z,5.77
2022-09-21T14:08:14.908Z,4.57
2022-09-21T14:11:08.427Z,4.83
2022-09-21T14:13:36.638Z,5.80
2022-09-21T14:16:21.906Z,3.53
2022-09-21T14:18:48.551Z,5.03
2022-09-21T14:21:19.028Z,4.17
2022-09-21T14:24:05.269Z,5.37
2022-09-21T14:26:34.574Z,5.77
2022-09-21T14:29:13.798Z,6.63
2022-09-21T14:31:40.585Z,5.17
2022-09-21T14:34:12.618Z,4.33
2022-09-21T14:36:42.228Z,3.57
2022-09-21T14:39:35.337Z,3.17
2022-09-21T14:42:13.358Z,4.07
2022-09-21T14:44:40.548Z,3.10
2022-09-21T14:47:18.508Z,5.87
2022-09-21T14:49:51.283Z,4.10
2022-09-21T14:52:47.466Z,3.80
2022-09-21T14:55:15.802Z,5.77
2022-09-21T14:57:48.427Z,5.20
2022-09-21T15:00:23.417Z,6.70
2022-09-21T15:03:05.039Z,4.37
2022-09-21T15:05:36.066Z,5.80
2022-09-21T15:08:30.623Z,4.57
2022-09-21T15:11:09.567Z,4.30
2022-09-21T15:13:47.582Z,7.80
2022-09-21T15:16:17.486Z,9.13
2022-09-21T15:18:48.393Z,3.20
2022-09-21T15:21:22.146Z,3.67
2022-09-21T15:23:51.471Z,3.70
2022-09-21T15:26:22.401Z,4.13
2022-09-21T15:29:08.772Z,4.13
2022-09-21T15:31:38.391Z,3.43
2022-09-21T15:34:06.086Z,4.20
2022-09-21T15:36:34.416Z,4.77
2022-09-21T15:39:01.255Z,5.03
2022-09-21T15:41:34.348Z,2.77
2022-09-21T15:44:20.282Z,3.63
2022-09-21T15:46:50.651Z,3.80
2022-09-21T15:49:21.384Z,3.90
2022-09-21T15:51:53.350Z,3.77
2022-09-21T15:54:32.283Z,4.67
2022-09-21T15:57:01.799Z,3.60
2022-09-21T15:59:31.515Z,2.80
2022-09-21T16:01:59.744Z,3.93
2022-09-21T16:04:27.279Z,5.03
2022-09-21T16:07:00.667Z,4.67
2022-09-21T16:09:31.224Z,2.30
2022-09-21T16:11:57.967Z,3.57
2022-09-21T16:14:43.089Z,3.30
2022-09-21T16:17:09.684Z,3.33
2022-09-21T16:19:40.128Z,5.47
2022-09-21T16:22:06.737Z,2.47
2022-09-21T16:24:33.600Z,2.03
2022-09-21T16:27:01.405Z,2.43
2022-09-21T16:29:37.712Z,2.30
2022-09-21T16:32:19.909Z,2.57
2022-09-21T16:34:51.834Z,3.97
2022-09-21T16:37:24.276Z,2.70
2022-09-21T16:39:58.176Z,6.10
2022-09-21T16:42:32.863Z,2.73
2022-09-21T16:45:00.289Z,2.83
2022-09-21T16:47:27.895Z,3.73
2022-09-21T16:49:56.485Z,2.30
2022-09-21T16:52:23.691Z,2.07
2022-09-21T16:54:51.099Z,3.60
2022-09-21T16:57:17.782Z,3.60
2022-09-21T16:59:44.708Z,5.27
2022-09-21T17:02:14.311Z,5.63
2022-09-21T17:04:41.345Z,3.80
2022-09-21T17:07:10.602Z,4.13
2022-09-21T17:09:38.568Z,7.33
2022-09-21T17:12:09.328Z,3.47
2022-09-21T17:14:36.831Z,6.33
2022-09-21T17:17:08.550Z,5.93
2022-09-21T17:19:35.680Z,6.27
2022-09-21T17:22:03.408Z,5.47
2022-09-21T17:24:49.285Z,5.93
2022-09-21T17:27:21.333Z,9.47
2022-09-21T17:29:49.616Z,3.90
2022-09-21T17:32:20.280Z,4.30
2022-09-21T17:34:50.202Z,5.93
2022-09-21T17:37:16.779Z,6.67
2022-09-21T17:39:45.006Z,8.13
2022-09-21T17:42:19.127Z,4.93
2022-09-21T17:44:59.700Z,6.47
2022-09-21T17:47:29.482Z,5.43
2022-09-21T17:49:59.463Z,8.47
2022-09-21T17:52:44.954Z,9.47
2022-09-21T17:55:12.527Z,12.40
2022-09-21T17:57:41.125Z,8.73
2022-09-21T18:00:19.392Z,9.23
2022-09-21T18:02:46.451Z,10.00
2022-09-21T18:05:16.044Z,8.20
2022-09-21T18:07:42.832Z,6.53
2022-09-21T18:10:11.831Z,5.50
2022-09-21T18:12:56.959Z,5.00
2022-09-21T18:15:36.596Z,4.53
2022-09-21T18:18:17.703Z,5.30
2022-09-21T18:20:44.363Z,6.53
2022-09-21T18:23:19.292Z,8.67
2022-09-21T18:25:49.328Z,12.63
2022-09-21T18:28:34.573Z,12.70
2022-09-21T18:31:04.216Z,11.73
2022-09-21T18:33:40.547Z,13.23
2022-09-21T18:36:10.011Z,10.67
2022-09-21T18:38:55.383Z,9.93
2022-09-21T18:41:48.382Z,12.63
2022-09-21T18:44:21.268Z,10.73
2022-09-21T18:47:09.760Z,11.77
2022-09-21T18:49:48.325Z,10.20
2022-09-21T18:52:28.105Z,7.77
2022-09-21T18:54:55.179Z,10.47
2022-09-21T18:57:23.495Z,7.53
2022-09-21T18:59:50.431Z,7.87
2022-09-21T19:02:20.103Z,8.70
2022-09-21T19:04:46.992Z,5.67
2022-09-21T19:07:18.971Z,8.00
2022-09-21T19:09:52.288Z,7.40
2022-09-21T19:12:33.805Z,8.27
2022-09-21T19:15:13.612Z,7.00
2022-09-21T19:17:59.349Z,8.60
2022-09-21T19:20:32.407Z,10.70
2022-09-21T19:22:58.920Z,8.37
2022-09-21T19:25:30.300Z,7.20
2022-09-21T19:28:02.205Z,7.80
2022-09-21T19:30:29.910Z,9.67
2022-09-21T19:33:01.244Z,7.70
2022-09-21T19:35:29.131Z,9.37
2022-09-21T19:37:57.149Z,9.03
2022-09-21T19:40:25.743Z,10.77
2022-09-21T19:43:13.384Z,8.73
2022-09-21T19:45:42.733Z,12.37
2022-09-21T19:48:10.813Z,5.90
2022-09-21T19:50:58.889Z,9.70
2022-09-21T19:53:44.308Z,7.23
2022-09-21T19:56:32.042Z,4.87
2022-09-21T19:59:17.493Z,9.57
2022-09-21T20:01:52.531Z,8.47
2022-09-21T20:04:28.746Z,8.43
2022-09-21T20:06:58.076Z,5.70
2022-09-21T20:09:29.247Z,7.20
2022-09-21T20:11:56.459Z,10.63
2022-09-21T20:14:29.813Z,8.87
2022-09-21T20:16:59.426Z,10.80
2022-09-21T20:19:46.504Z,7.73
2022-09-21T20:22:17.213Z,7.73
2022-09-21T20:25:07.115Z,9.50
2022-09-21T20:27:42.107Z,8.13
2022-09-21T20:30:10.394Z,9.67
2022-09-21T20:32:38.352Z,8.73
2022-09-21T20:35:21.950Z,7.90
2022-09-21T20:37:49.261Z,6.53
2022-09-21T20:40:16.292Z,5.63
2022-09-21T20:42:43.282Z,5.67
2022-09-21T20:45:11.169Z,5.63
2022-09-21T20:47:37.837Z,7.03
2022-09-21T20:50:04.979Z,5.13
2022-09-21T20:52:31.709Z,6.97
2022-09-21T20:54:58.336Z,7.37
2022-09-21T20:57:25.576Z,7.83
2022-09-21T20:59:52.228Z,8.63
2022-09-21T21:02:18.837Z,6.47
2022-09-21T21:04:45.612Z,5.00
2022-09-21T21:07:12.274Z,8.43
2022-09-21T21:09:38.986Z,7.63
2022-09-21T21:12:05.620Z,6.43
2022-09-21T21:14:32.188Z,6.40
2022-09-21T21:16:59.140Z,7.93
2022-09-21T21:19:26.167Z,5.77
2022-09-21T21:21:52.678Z,12.43
2022-09-21T21:24:37.957Z,5.63
2022-09-21T21:27:04.625Z,6.30
2022-09-21T21:29:32.182Z,7.83
2022-09-21T21:31:59.844Z,4.73
2022-09-21T21:34:26.932Z,6.97
2022-09-21T21:36:53.596Z,8.27
2022-09-21T21:39:20.168Z,6.63
2022-09-21T21:41:46.830Z,5.00
2022-09-21T21:44:13.464Z,7.13
2022-09-21T21:46:40.079Z,10.50
2022-09-21T21:49:07.156Z,5.37
2022-09-21T21:51:33.832Z,6.17
2022-09-21T21:54:00.628Z,7.40
2022-09-21T21:56:27.277Z,4.63
2022-09-21T21:58:54.219Z,7.83
2022-09-21T22:01:22.474Z,4.30
2022-09-21T22:03:53.019Z,10.13
2022-09-21T22:06:20.148Z,7.43
2022-09-21T22:08:47.184Z,6.43
2022-09-21T22:11:14.035Z,5.57
2022-09-21T22:13:41.372Z,5.33
2022-09-21T22:16:12.278Z,7.00
2022-09-21T22:18:39.154Z,6.00
2022-09-21T22:21:09.035Z,6.00
2022-09-21T22:23:35.749Z,7.63
2022-09-21T22:26:08.896Z,6.17
2022-09-21T22:28:36.555Z,4.87
2022-09-21T22:31:04.496Z,7.27
2022-09-21T22:33:33.305Z,5.63
2022-09-21T22:36:08.037Z,6.57
2022-09-21T22:38:39.200Z,6.53
2022-09-21T22:41:09.942Z,5.63
2022-09-21T22:43:36.902Z,6.70
2022-09-21T22:46:04.254Z,9.30
2022-09-21T22:48:30.891Z,6.03
2022-09-21T22:50:57.505Z,9.30
2022-09-21T22:53:24.423Z,6.70
2022-09-21T22:56:20.323Z,6.53
2022-09-21T22:58:48.151Z,6.80
2022-09-21T23:01:19.592Z,7.33
2022-09-21T23:03:49.842Z,4.83
2022-09-21T23:06:17.744Z,7.93
2022-09-21T23:08:48.984Z,5.50
2022-09-21T23:11:16.699Z,5.67
2022-09-21T23:13:43.447Z,5.63
2022-09-21T23:16:11.431Z,5.63
2022-09-21T23:18:38.269Z,6.57
2022-09-21T23:21:06.915Z,7.07
2022-09-21T23:23:33.716Z,6.50
2022-09-21T23:26:19.847Z,5.40
2022-09-21T23:28:51.209Z,5.10
2022-09-21T23:31:17.963Z,5.97
2022-09-21T23:33:46.183Z,7.10
2022-09-21T23:36:14.523Z,5.10
2022-09-21T23:38:41.254Z,5.87
2022-09-21T23:41:17.901Z,4.30
2022-09-21T23:43:44.902Z,4.53
2022-09-21T23:46:12.317Z,4.03
2022-09-21T23:48:38.964Z,7.33
2022-09-21T23:51:05.937Z,6.57
2022-09-21T23:53:32.583Z,5.33
2022-09-21T23:55:59.441Z,6.47
2022-09-21T23:58:26.830Z,7.63
